createdAt,value
2022-09-30T00:00:01.047Z,7.00
2022-09-30T00:02:28.042Z,5.80
2022-09-30T00:04:58.163Z,5.10
2022-09-30T00:07:24.775Z,4.70
2022-09-30T00:09:51.476Z,5.77
2022-09-30T00:12:18.447Z,5.30
2022-09-30T00:14:51.816Z,7.20
2022-09-30T00:17:19.498Z,4.90
2022-09-30T00:19:47.433Z,5.53
2022-09-30T00:22:14.554Z,5.13
2022-09-30T00:24:41.278Z,7.60
2022-09-30T00:27:07.929Z,5.63
2022-09-30T00:29:37.856Z,7.03
2022-09-30T00:32:04.432Z,8.33
2022-09-30T00:34:33.339Z,5.53
2022-09-30T00:37:04.384Z,5.10
2022-09-30T00:39:31.693Z,5.20
2022-09-30T00:42:02.683Z,7.50
2022-09-30T00:44:44.647Z,7.50
2022-09-30T00:47:30.483Z,5.93
2022-09-30T00:50:03.111Z,7.67
2022-09-30T00:52:30.782Z,7.20
2022-09-30T00:54:59.048Z,5.97
2022-09-30T00:57:25.764Z,4.73
2022-09-30T00:59:52.499Z,5.63
2022-09-30T01:02:19.393Z,5.37
2022-09-30T01:07:36.837Z,5.50
2022-09-30T01:10:06.541Z,8.33
2022-09-30T01:12:33.435Z,5.10
2022-09-30T01:15:00.972Z,6.03
2022-09-30T01:17:40.724Z,4.60
2022-09-30T01:20:29.608Z,6.17
2022-09-30T01:23:01.626Z,5.20
2022-09-30T01:25:47.432Z,8.17
2022-09-30T01:28:20.544Z,6.83
2022-09-30T01:31:05.926Z,7.50
2022-09-30T01:33:46.697Z,5.80
2022-09-30T01:36:13.989Z,4.73
2022-09-30T01:39:11.092Z,5.60
2022-09-30T01:41:45.870Z,7.43
2022-09-30T01:44:25.464Z,5.73
2022-09-30T01:46:59.120Z,8.83
2022-09-30T01:49:39.018Z,5.77
2022-09-30T01:52:05.644Z,5.47
2022-09-30T01:54:38.442Z,10.00
2022-09-30T01:57:25.715Z,4.37
2022-09-30T01:59:58.084Z,5.30
2022-09-30T02:02:30.239Z,4.20
2022-09-30T02:05:02.550Z,5.63
2022-09-30T02:07:39.068Z,6.57
2022-09-30T02:10:27.616Z,5.63
2022-09-30T02:12:57.926Z,4.63
2022-09-30T02:15:28.608Z,6.23
2022-09-30T02:17:58.833Z,10.47
2022-09-30T02:20:27.073Z,4.50
2022-09-30T02:23:00.822Z,6.40
2022-09-30T02:25:30.075Z,4.20
2022-09-30T02:28:05.364Z,5.10
2022-09-30T02:30:33.121Z,9.17
2022-09-30T02:33:01.498Z,4.00
2022-09-30T02:35:34.852Z,7.87
2022-09-30T02:38:05.641Z,4.80
2022-09-30T02:40:32.213Z,5.27
2022-09-30T02:42:58.888Z,4.47
2022-09-30T02:45:26.123Z,7.07
2022-09-30T02:47:55.558Z,5.60
2022-09-30T02:50:25.943Z,4.37
2022-09-30T02:52:55.480Z,3.90
2022-09-30T02:55:27.532Z,5.97
2022-09-30T02:57:57.722Z,4.53
2022-09-30T03:00:24.459Z,5.23
2022-09-30T03:02:54.695Z,4.93
2022-09-30T03:05:21.971Z,8.50
2022-09-30T03:07:49.031Z,4.17
2022-09-30T03:10:22.381Z,4.70
2022-09-30T03:13:03.312Z,5.93
2022-09-30T03:15:37.813Z,5.43
2022-09-30T03:18:13.563Z,5.77
2022-09-30T03:20:49.417Z,5.23
2022-09-30T03:23:35.327Z,4.57
2022-09-30T05:56:39.939Z,5.87
2022-09-30T05:59:07.317Z,5.30
2022-09-30T06:01:34.298Z,6.20
2022-09-30T06:04:01.828Z,5.50
2022-09-30T06:06:29.024Z,6.27
2022-09-30T06:08:55.958Z,6.73
2022-09-30T06:11:25.247Z,9.00
2022-09-30T06:13:52.431Z,4.73
2022-09-30T06:16:19.548Z,7.30
2022-09-30T06:18:53.091Z,4.53
2022-09-30T06:21:21.084Z,8.13
2022-09-30T06:23:47.719Z,5.77
2022-09-30T06:26:14.488Z,7.23
2022-09-30T06:28:42.255Z,5.77
2022-09-30T06:31:09.482Z,4.40
2022-09-30T06:33:36.297Z,5.43
2022-09-30T06:36:04.961Z,8.97
2022-09-30T06:38:37.553Z,6.53
2022-09-30T06:41:04.868Z,6.80
2022-09-30T06:43:40.772Z,8.00
2022-09-30T06:46:23.876Z,7.77
2022-09-30T06:49:09.194Z,8.00
2022-09-30T06:51:38.972Z,6.97
2022-09-30T06:54:05.658Z,11.93
2022-09-30T06:56:32.219Z,8.53
2022-09-30T06:58:58.859Z,9.97
2022-09-30T07:01:27.791Z,13.67
2022-09-30T07:03:58.224Z,12.60
2022-09-30T07:06:28.347Z,11.80
2022-09-30T07:08:55.353Z,11.23
2022-09-30T07:11:22.159Z,11.03
2022-09-30T07:13:49.390Z,11.37
2022-09-30T07:16:17.010Z,13.87
2022-09-30T07:18:45.054Z,14.37
2022-09-30T07:21:16.417Z,15.80
2022-09-30T07:23:47.301Z,14.53
2022-09-30T07:26:19.995Z,13.07
2022-09-30T07:28:46.997Z,16.97
2022-09-30T07:31:32.380Z,13.67
2022-09-30T07:34:00.271Z,15.03
2022-09-30T07:36:32.702Z,13.17
2022-09-30T07:39:03.308Z,14.73
2022-09-30T07:41:30.116Z,16.93
2022-09-30T07:43:59.012Z,11.80
2022-09-30T07:46:30.096Z,16.63
2022-09-30T07:49:00.546Z,15.17
2022-09-30T07:51:31.787Z,13.00
2022-09-30T07:54:00.667Z,11.77
2022-09-30T07:56:27.814Z,11.40
2022-09-30T07:59:00.976Z,13.70
2022-09-30T08:01:32.322Z,13.70
2022-09-30T08:04:01.727Z,13.50
2022-09-30T08:06:30.373Z,12.80
2022-09-30T08:08:58.256Z,15.77
2022-09-30T08:11:25.476Z,13.13
2022-09-30T08:13:53.480Z,12.43
2022-09-30T08:16:20.938Z,10.60
2022-09-30T08:18:49.731Z,9.73
2022-09-30T08:21:16.542Z,10.80
2022-09-30T08:23:43.150Z,10.60
2022-09-30T08:26:12.771Z,11.33
2022-09-30T08:28:39.778Z,12.00
2022-09-30T08:31:07.792Z,11.80
2022-09-30T08:33:34.774Z,11.07
2022-09-30T08:36:02.541Z,9.50
2022-09-30T08:38:29.182Z,10.27
2022-09-30T08:41:05.881Z,9.87
2022-09-30T08:43:45.634Z,8.73
2022-09-30T08:46:32.602Z,11.80
2022-09-30T08:49:22.573Z,9.80
2022-09-30T08:51:49.888Z,9.63
2022-09-30T08:54:22.296Z,11.07
2022-09-30T08:56:48.945Z,12.83
2022-09-30T08:59:27.067Z,13.47
2022-09-30T09:01:56.642Z,11.13
2022-09-30T09:04:23.450Z,10.27
2022-09-30T09:06:55.002Z,9.00
2022-09-30T09:09:40.790Z,11.33
2022-09-30T09:12:15.034Z,8.33
2022-09-30T09:14:47.613Z,10.77
2022-09-30T09:17:16.065Z,11.00
2022-09-30T09:19:47.609Z,8.00
2022-09-30T09:22:14.530Z,12.00
2022-09-30T09:24:46.034Z,10.87
2022-09-30T09:27:20.850Z,9.63
2022-09-30T09:29:56.791Z,9.67
2022-09-30T09:32:25.588Z,9.43
2022-09-30T09:34:56.207Z,9.47
2022-09-30T09:37:45.516Z,8.33
2022-09-30T09:40:15.110Z,12.37
2022-09-30T09:42:58.555Z,8.83
2022-09-30T09:45:34.051Z,9.40
2022-09-30T09:48:01.329Z,10.53
2022-09-30T09:50:36.501Z,8.40
2022-09-30T09:53:21.859Z,10.93
2022-09-30T09:55:50.042Z,13.53
2022-09-30T09:58:19.688Z,9.27
2022-09-30T10:00:46.411Z,8.27
2022-09-30T10:03:26.050Z,8.70
2022-09-30T10:06:01.922Z,8.33
2022-09-30T10:08:31.190Z,8.23
2022-09-30T10:11:03.391Z,9.43
2022-09-30T10:13:43.676Z,9.37
2022-09-30T10:16:28.210Z,9.70
2022-09-30T10:18:55.052Z,10.17
2022-09-30T10:21:23.319Z,10.23
2022-09-30T10:23:50.127Z,11.87
2022-09-30T10:26:22.604Z,9.60
2022-09-30T10:28:51.179Z,8.90
2022-09-30T10:31:30.364Z,7.50
2022-09-30T10:34:01.372Z,10.80
2022-09-30T10:36:33.793Z,8.57
2022-09-30T10:39:04.019Z,9.40
2022-09-30T10:41:35.589Z,6.53
2022-09-30T10:44:03.732Z,7.20
2022-09-30T10:46:32.705Z,8.17
2022-09-30T10:49:00.418Z,6.83
2022-09-30T10:51:33.936Z,8.57
2022-09-30T10:54:00.758Z,6.67
2022-09-30T10:56:38.101Z,10.20
2022-09-30T10:59:05.925Z,10.17
2022-09-30T11:01:38.735Z,7.23
2022-09-30T11:04:15.875Z,7.13
2022-09-30T11:06:42.873Z,7.53
2022-09-30T11:09:13.740Z,7.03
2022-09-30T11:11:44.980Z,6.77
2022-09-30T11:14:11.545Z,6.20
2022-09-30T11:16:46.729Z,7.13
2022-09-30T11:19:19.453Z,5.83
2022-09-30T11:21:49.381Z,4.57
2022-09-30T11:24:22.559Z,8.80
2022-09-30T11:26:49.200Z,6.43
2022-09-30T11:29:15.888Z,5.60
2022-09-30T11:31:50.488Z,4.47
2022-09-30T11:34:27.135Z,6.33
2022-09-30T11:37:03.087Z,6.10
2022-09-30T11:39:46.799Z,3.87
2022-09-30T11:42:24.214Z,5.70
2022-09-30T11:44:56.582Z,4.47
2022-09-30T11:47:23.547Z,4.07
2022-09-30T11:49:50.680Z,3.93
2022-09-30T11:52:21.318Z,6.20
2022-09-30T11:54:59.279Z,6.57
2022-09-30T11:57:36.593Z,4.53
2022-09-30T12:00:13.705Z,4.50
2022-09-30T12:02:48.080Z,5.37
2022-09-30T12:05:26.949Z,6.13
2022-09-30T12:08:05.299Z,5.03
2022-09-30T12:10:33.971Z,3.97
2022-09-30T12:13:03.219Z,3.33
2022-09-30T12:15:30.941Z,4.63
2022-09-30T12:17:59.325Z,5.00
2022-09-30T12:20:28.316Z,5.40
2022-09-30T12:22:59.507Z,4.10
2022-09-30T12:25:31.432Z,3.17
2022-09-30T12:28:26.223Z,2.90
2022-09-30T12:31:00.040Z,3.40
2022-09-30T12:33:43.842Z,3.40
2022-09-30T12:36:33.376Z,2.33
2022-09-30T12:39:18.033Z,3.50
2022-09-30T12:41:53.819Z,5.93
2022-09-30T12:44:41.120Z,1.50
2022-09-30T12:47:07.777Z,3.00
2022-09-30T12:49:37.948Z,2.13
2022-09-30T12:52:07.928Z,2.43
2022-09-30T12:54:41.142Z,3.13
2022-09-30T12:57:09.985Z,2.10
2022-09-30T12:59:38.223Z,4.07
2022-09-30T13:02:06.359Z,2.13
2022-09-30T13:04:35.147Z,2.00
2022-09-30T13:07:02.101Z,3.07
2022-09-30T13:09:52.515Z,2.03
2022-09-30T13:12:25.155Z,5.00
2022-09-30T13:15:12.388Z,3.40
2022-09-30T13:17:39.209Z,1.60
2022-09-30T13:20:25.972Z,3.57
2022-09-30T13:22:56.818Z,2.70
2022-09-30T13:25:23.513Z,3.10
2022-09-30T13:27:55.503Z,1.97
2022-09-30T13:30:22.402Z,3.47
2022-09-30T13:33:00.184Z,1.80
2022-09-30T13:35:33.415Z,2.00
2022-09-30T13:38:12.875Z,2.63
2022-09-30T13:41:03.731Z,1.43
2022-09-30T13:43:42.842Z,2.17
2022-09-30T13:46:12.783Z,3.60
2022-09-30T13:48:42.346Z,4.60
2022-09-30T13:51:14.456Z,2.27
2022-09-30T13:53:46.144Z,2.20
2022-09-30T13:56:20.089Z,3.47
2022-09-30T13:58:56.575Z,3.60
2022-09-30T14:01:49.967Z,4.33
2022-09-30T14:04:17.217Z,2.53
2022-09-30T14:07:02.837Z,2.17
2022-09-30T14:09:44.320Z,1.97
2022-09-30T14:12:25.411Z,2.77
2022-09-30T14:15:14.647Z,2.57
2022-09-30T14:18:01.277Z,1.53
2022-09-30T14:20:28.326Z,1.30
2022-09-30T14:22:55.901Z,1.40
2022-09-30T14:25:23.999Z,3.40
2022-09-30T14:27:50.675Z,1.67
2022-09-30T14:30:22.363Z,3.03
2022-09-30T14:32:57.257Z,2.60
2022-09-30T14:35:31.382Z,2.27
2022-09-30T14:38:05.607Z,2.90
2022-09-30T14:40:36.787Z,1.90
2022-09-30T14:43:08.125Z,1.20
2022-09-30T14:45:37.606Z,2.07
2022-09-30T14:48:09.651Z,2.07
2022-09-30T14:50:55.251Z,1.30
2022-09-30T14:53:26.864Z,2.27
2022-09-30T14:55:54.101Z,1.63
2022-09-30T14:58:26.118Z,3.13
2022-09-30T15:00:57.332Z,1.73
2022-09-30T15:03:24.794Z,1.00
2022-09-30T15:05:51.411Z,1.47
2022-09-30T15:08:20.052Z,2.43
2022-09-30T15:10:47.330Z,1.67
2022-09-30T15:13:15.048Z,4.10
2022-09-30T15:18:33.914Z,1.83
2022-09-30T15:21:06.119Z,1.73
2022-09-30T15:23:35.559Z,2.07
2022-09-30T15:26:02.331Z,2.23
2022-09-30T15:28:29.150Z,1.60
2022-09-30T15:30:57.399Z,2.73
2022-09-30T15:33:27.680Z,4.07
2022-09-30T15:36:27.934Z,4.17
2022-09-30T15:38:54.744Z,1.53
2022-09-30T15:41:21.773Z,2.40
2022-09-30T15:43:53.270Z,2.20
2022-09-30T15:46:27.648Z,2.13
2022-09-30T15:49:01.856Z,1.93
2022-09-30T15:51:33.811Z,1.40
2022-09-30T15:54:15.935Z,1.40
2022-09-30T15:56:43.643Z,3.23
2022-09-30T15:59:11.779Z,1.87
2022-09-30T16:01:39.242Z,2.33
2022-09-30T16:04:16.291Z,1.37
2022-09-30T16:06:48.265Z,1.53
2022-09-30T16:09:18.648Z,0.83
2022-09-30T16:12:05.573Z,2.30
2022-09-30T16:14:39.864Z,1.90
2022-09-30T16:17:09.037Z,1.20
2022-09-30T16:19:35.713Z,2.33
2022-09-30T16:22:02.347Z,1.53
2022-09-30T16:24:32.820Z,2.00
2022-09-30T16:27:03.400Z,1.53
2022-09-30T16:29:30.492Z,2.27
2022-09-30T16:31:57.579Z,1.27
2022-09-30T16:34:28.459Z,1.03
2022-09-30T16:37:04.810Z,2.13
2022-09-30T16:39:34.659Z,2.33
2022-09-30T16:42:02.160Z,3.13
2022-09-30T16:44:33.302Z,1.07
2022-09-30T16:47:01.184Z,2.73
2022-09-30T16:49:27.955Z,1.00
2022-09-30T16:51:54.859Z,1.93
2022-09-30T16:54:21.702Z,2.37
2022-09-30T16:56:49.507Z,1.57
2022-09-30T16:59:19.770Z,2.90
2022-09-30T17:01:46.906Z,2.77
2022-09-30T17:04:16.589Z,2.27
2022-09-30T17:06:44.830Z,2.53
2022-09-30T17:09:11.642Z,2.50
2022-09-30T17:11:38.345Z,1.73
2022-09-30T17:14:05.872Z,1.33
2022-09-30T17:16:33.307Z,2.67
2022-09-30T17:19:00.601Z,2.73
2022-09-30T17:21:27.961Z,3.17
2022-09-30T17:23:55.031Z,3.60
2022-09-30T17:26:21.982Z,1.77
2022-09-30T17:28:48.619Z,2.27
2022-09-30T17:31:15.730Z,1.50
2022-09-30T17:33:42.441Z,2.13
2022-09-30T17:36:12.882Z,3.20
2022-09-30T17:38:40.004Z,3.53
2022-09-30T17:41:26.393Z,2.20
2022-09-30T17:43:53.881Z,1.90
2022-09-30T17:46:23.540Z,2.07
2022-09-30T17:48:54.852Z,2.07
2022-09-30T17:51:21.630Z,2.40
2022-09-30T17:53:51.303Z,2.93
2022-09-30T17:56:20.090Z,1.73
2022-09-30T17:58:48.922Z,3.40
2022-09-30T18:01:16.299Z,2.10
2022-09-30T18:03:45.004Z,2.80
2022-09-30T18:06:12.278Z,1.67
2022-09-30T18:08:39.311Z,3.27
2022-09-30T18:11:06.155Z,1.63
2022-09-30T18:13:33.136Z,1.40
2022-09-30T18:16:02.170Z,1.97
2022-09-30T18:18:29.492Z,4.40
2022-09-30T18:20:56.395Z,2.63
2022-09-30T18:23:23.131Z,2.87
2022-09-30T18:25:52.097Z,3.50
2022-09-30T18:28:19.316Z,3.90
2022-09-30T18:30:46.716Z,3.30
2022-09-30T18:33:18.181Z,3.57
2022-09-30T18:35:44.822Z,3.87
2022-09-30T18:38:13.488Z,2.13
2022-09-30T18:40:44.507Z,3.97
2022-09-30T18:43:14.035Z,3.40
2022-09-30T18:45:43.448Z,2.70
2022-09-30T18:48:10.960Z,2.10
2022-09-30T18:50:37.690Z,3.80
2022-09-30T18:53:09.524Z,4.80
2022-09-30T18:55:37.166Z,2.57
2022-09-30T18:58:04.024Z,1.60
2022-09-30T19:00:31.640Z,3.13
2022-09-30T19:02:58.448Z,2.87
2022-09-30T19:05:25.394Z,2.50
2022-09-30T19:07:52.849Z,1.70
2022-09-30T19:10:20.209Z,2.00
2022-09-30T19:12:46.808Z,3.43
2022-09-30T19:15:17.106Z,2.57
2022-09-30T19:17:44.839Z,2.77
2022-09-30T19:20:12.178Z,2.67
2022-09-30T19:22:39.253Z,2.60
2022-09-30T19:25:06.912Z,1.67
2022-09-30T19:27:37.837Z,1.90
2022-09-30T19:30:06.632Z,2.73
2022-09-30T19:32:36.361Z,4.53
2022-09-30T19:35:06.639Z,1.90
2022-09-30T19:37:34.760Z,2.03
2022-09-30T19:40:10.114Z,4.23
2022-09-30T19:42:42.986Z,3.00
2022-09-30T19:45:09.815Z,3.00
2022-09-30T19:47:37.963Z,2.50
2022-09-30T19:50:05.677Z,4.67
2022-09-30T19:52:34.552Z,3.47
2022-09-30T19:55:12.481Z,2.97
2022-09-30T19:57:44.449Z,3.93
2022-09-30T20:00:13.126Z,4.20
2022-09-30T20:02:40.126Z,3.40
2022-09-30T20:05:08.758Z,3.23
2022-09-30T20:07:35.954Z,3.73
2022-09-30T20:10:03.854Z,5.70
2022-09-30T20:12:31.523Z,3.70
2022-09-30T20:15:16.903Z,4.30
2022-09-30T20:17:44.327Z,3.57
2022-09-30T20:20:29.717Z,4.00
2022-09-30T20:22:59.818Z,5.57
2022-09-30T20:25:26.638Z,3.70
2022-09-30T20:27:53.246Z,3.17
2022-09-30T20:30:31.169Z,5.50
2022-09-30T20:32:58.982Z,3.33
2022-09-30T20:35:26.158Z,4.27
2022-09-30T20:37:53.968Z,5.07
2022-09-30T20:40:20.871Z,5.23
2022-09-30T20:42:48.613Z,6.30
2022-09-30T20:45:15.450Z,4.50
2022-09-30T20:47:43.076Z,4.87
2022-09-30T20:50:12.825Z,4.10
2022-09-30T20:52:39.788Z,4.90
2022-09-30T20:55:08.326Z,4.80
2022-09-30T20:57:35.210Z,3.83
2022-09-30T21:00:01.921Z,5.00
2022-09-30T21:02:29.147Z,4.73
2022-09-30T21:04:57.866Z,3.73
2022-09-30T21:07:25.822Z,3.33
2022-09-30T21:09:52.607Z,4.03
2022-09-30T21:12:19.711Z,3.47
2022-09-30T21:14:46.661Z,5.30
2022-09-30T21:17:14.268Z,3.30
2022-09-30T21:19:41.069Z,4.37
2022-09-30T21:22:07.950Z,4.50
2022-09-30T21:24:34.653Z,6.27
2022-09-30T21:27:06.163Z,3.10
2022-09-30T21:29:32.956Z,5.07
2022-09-30T21:32:00.060Z,3.77
2022-09-30T21:34:27.402Z,3.30
2022-09-30T21:36:53.877Z,4.93
2022-09-30T21:39:20.554Z,3.80
2022-09-30T21:41:48.664Z,3.93
2022-09-30T21:44:16.074Z,3.73
2022-09-30T21:46:47.993Z,2.70
2022-09-30T21:49:16.264Z,3.73
2022-09-30T21:51:42.850Z,2.60
2022-09-30T21:54:11.820Z,2.60
2022-09-30T21:56:38.851Z,3.63
2022-09-30T21:59:05.727Z,3.90
2022-09-30T22:01:32.879Z,4.53
2022-09-30T22:04:00.890Z,2.80
2022-09-30T22:06:28.663Z,3.00
2022-09-30T22:08:55.698Z,4.60
2022-09-30T22:11:24.909Z,3.87
2022-09-30T22:13:55.757Z,3.20
2022-09-30T22:16:23.683Z,4.83
2022-09-30T22:18:54.986Z,3.73
2022-09-30T22:21:21.886Z,4.23
2022-09-30T22:23:52.899Z,2.80
2022-09-30T22:26:23.786Z,3.27
2022-09-30T22:28:54.672Z,3.13
2022-09-30T22:31:26.359Z,4.27
2022-09-30T22:34:13.312Z,3.73
2022-09-30T22:36:58.903Z,3.33
2022-09-30T22:39:27.664Z,3.53
2022-09-30T22:41:54.958Z,4.00
2022-09-30T22:44:25.330Z,3.87
2022-09-30T22:47:01.249Z,5.90
2022-09-30T22:49:32.376Z,4.27
2022-09-30T22:51:59.692Z,3.03
2022-09-30T22:54:27.175Z,3.27
2022-09-30T22:56:55.081Z,3.57
2022-09-30T22:59:22.736Z,3.90
2022-09-30T23:01:49.461Z,4.97
2022-09-30T23:04:17.317Z,3.80
2022-09-30T23:06:46.739Z,4.03
2022-09-30T23:09:13.653Z,3.80
2022-09-30T23:11:43.226Z,4.90
2022-09-30T23:14:10.015Z,4.73
2022-09-30T23:16:36.757Z,3.70
2022-09-30T23:19:03.576Z,3.80
2022-09-30T23:21:30.528Z,4.93
2022-09-30T23:23:57.288Z,5.20
2022-09-30T23:26:25.512Z,3.10
2022-09-30T23:28:56.193Z,4.07
2022-09-30T23:31:22.874Z,3.43
2022-09-30T23:33:54.553Z,3.37
2022-09-30T23:36:32.318Z,4.10
2022-09-30T23:39:07.596Z,4.13
2022-09-30T23:41:40.598Z,4.20
2022-09-30T23:44:09.795Z,4.50
2022-09-30T23:46:36.797Z,5.73
2022-09-30T23:49:03.574Z,3.93
2022-09-30T23:51:34.389Z,6.27
2022-09-30T23:54:02.434Z,4.83
2022-09-30T23:56:29.047Z,3.47
2022-09-30T23:58:58.829Z,3.17
